sensor_id;sensor_type;location;lat;lon;timestamp;P1;durP1;ratioP1;P2;durP2;ratioP2
17967;SDS011;9109;48.050;11.696;2022-07-25T03:47:24;14.07;;;10.02;;
17967;SDS011;9109;48.050;11.696;2022-07-25T03:50:26;16.33;;;10.43;;
17967;SDS011;9109;48.050;11.696;2022-07-25T03:53:28;16.35;;;10.10;;
17967;SDS011;9109;48.050;11.696;2022-07-25T03:56:32;14.50;;;10.07;;
17967;SDS011;9109;48.050;11.696;2022-07-25T03:59:37;16.92;;;10.90;;
17967;SDS011;9109;48.050;11.696;2022-07-25T04:02:40;15.48;;;10.15;;
17967;SDS011;9109;48.050;11.696;2022-07-25T04:05:42;17.38;;;10.85;;
17967;SDS011;9109;48.050;11.696;2022-07-25T04:08:44;13.95;;;10.38;;
17967;SDS011;9109;48.050;11.696;2022-07-25T04:11:46;15.32;;;9.90;;
17967;SDS011;9109;48.050;11.696;2022-07-25T04:14:50;15.77;;;10.07;;
17967;SDS011;9109;48.050;11.696;2022-07-25T04:17:58;15.48;;;10.00;;
17967;SDS011;9109;48.050;11.696;2022-07-25T04:21:00;15.50;;;9.82;;
17967;SDS011;9109;48.050;11.696;2022-07-25T04:24:03;17.60;;;10.73;;
17967;SDS011;9109;48.050;11.696;2022-07-25T04:27:06;18.10;;;11.18;;
17967;SDS011;9109;48.050;11.696;2022-07-25T04:30:08;15.68;;;10.55;;
17967;SDS011;9109;48.050;11.696;2022-07-25T04:33:13;15.45;;;10.55;;
17967;SDS011;9109;48.050;11.696;2022-07-25T04:36:15;18.20;;;9.93;;
17967;SDS011;9109;48.050;11.696;2022-07-25T04:39:17;21.10;;;9.75;;
17967;SDS011;9109;48.050;11.696;2022-07-25T04:42:19;24.38;;;10.52;;
17967;SDS011;9109;48.050;11.696;2022-07-25T04:45:21;19.55;;;9.82;;
17967;SDS011;9109;48.050;11.696;2022-07-25T04:48:25;21.70;;;10.43;;
17967;SDS011;9109;48.050;11.696;2022-07-25T04:51:26;19.50;;;10.40;;
17967;SDS011;9109;48.050;11.696;2022-07-25T04:54:28;26.60;;;10.80;;
17967;SDS011;9109;48.050;11.696;2022-07-25T04:57:30;18.80;;;10.52;;
17967;SDS011;9109;48.050;11.696;2022-07-25T05:00:32;17.88;;;10.85;;
17967;SDS011;9109;48.050;11.696;2022-07-25T05:03:35;15.63;;;10.45;;
17967;SDS011;9109;48.050;11.696;2022-07-25T05:06:37;20.48;;;11.40;;
17967;SDS011;9109;48.050;11.696;2022-07-25T05:09:39;21.77;;;11.70;;
17967;SDS011;9109;48.050;11.696;2022-07-25T05:12:41;15.27;;;10.95;;
17967;SDS011;9109;48.050;11.696;2022-07-25T05:15:43;22.80;;;11.52;;
17967;SDS011;9109;48.050;11.696;2022-07-25T05:18:46;18.23;;;10.60;;
17967;SDS011;9109;48.050;11.696;2022-07-25T05:21:48;35.55;;;11.82;;
17967;SDS011;9109;48.050;11.696;2022-07-25T05:24:50;19.60;;;11.27;;
17967;SDS011;9109;48.050;11.696;2022-07-25T05:27:52;23.85;;;10.90;;
17967;SDS011;9109;48.050;11.696;2022-07-25T05:30:56;27.88;;;11.27;;
17967;SDS011;9109;48.050;11.696;2022-07-25T05:33:59;20.00;;;11.57;;
17967;SDS011;9109;48.050;11.696;2022-07-25T05:37:01;21.30;;;12.50;;
17967;SDS011;9109;48.050;11.696;2022-07-25T05:40:04;20.08;;;11.68;;
17967;SDS011;9109;48.050;11.696;2022-07-25T05:43:07;22.50;;;10.85;;
17967;SDS011;9109;48.050;11.696;2022-07-25T05:46:09;22.95;;;11.68;;
17967;SDS011;9109;48.050;11.696;2022-07-25T05:49:12;16.02;;;10.27;;
17967;SDS011;9109;48.050;11.696;2022-07-25T05:52:15;15.98;;;10.85;;
17967;SDS011;9109;48.050;11.696;2022-07-25T05:55:16;16.33;;;10.35;;
17967;SDS011;9109;48.050;11.696;2022-07-25T05:58:19;21.60;;;10.20;;
17967;SDS011;9109;48.050;11.696;2022-07-25T06:01:21;19.63;;;10.57;;
17967;SDS011;9109;48.050;11.696;2022-07-25T06:04:24;20.70;;;9.95;;
17967;SDS011;9109;48.050;11.696;2022-07-25T06:07:26;25.95;;;10.73;;
17967;SDS011;9109;48.050;11.696;2022-07-25T06:10:29;26.00;;;11.00;;
17967;SDS011;9109;48.050;11.696;2022-07-25T06:13:31;26.30;;;11.20;;
17967;SDS011;9109;48.050;11.696;2022-07-25T06:16:33;20.48;;;10.25;;
17967;SDS011;9109;48.050;11.696;2022-07-25T06:19:36;24.88;;;10.57;;
17967;SDS011;9109;48.050;11.696;2022-07-25T06:22:38;22.63;;;10.13;;
17967;SDS011;9109;48.050;11.696;2022-07-25T06:25:40;26.50;;;10.15;;
17967;SDS011;9109;48.050;11.696;2022-07-25T06:28:42;15.73;;;10.27;;
17967;SDS011;9109;48.050;11.696;2022-07-25T06:31:44;20.95;;;10.13;;
17967;SDS011;9109;48.050;11.696;2022-07-25T06:34:47;23.83;;;10.05;;
17967;SDS011;9109;48.050;11.696;2022-07-25T06:37:50;21.48;;;9.30;;
17967;SDS011;9109;48.050;11.696;2022-07-25T06:40:52;23.80;;;10.15;;
17967;SDS011;9109;48.050;11.696;2022-07-25T06:43:54;13.93;;;8.93;;
17967;SDS011;9109;48.050;11.696;2022-07-25T06:46:55;15.60;;;9.95;;
17967;SDS011;9109;48.050;11.696;2022-07-25T06:49:59;18.70;;;10.43;;
17967;SDS011;9109;48.050;11.696;2022-07-25T06:53:01;13.05;;;9.55;;
17967;SDS011;9109;48.050;11.696;2022-07-25T06:56:03;15.93;;;10.35;;
17967;SDS011;9109;48.050;11.696;2022-07-25T06:59:05;11.02;;;9.00;;
17967;SDS011;9109;48.050;11.696;2022-07-25T07:02:07;15.45;;;9.52;;
17967;SDS011;9109;48.050;11.696;2022-07-25T07:05:10;12.50;;;9.73;;
17967;SDS011;9109;48.050;11.696;2022-07-25T07:08:12;17.23;;;9.57;;
17967;SDS011;9109;48.050;11.696;2022-07-25T07:11:14;14.85;;;9.48;;
17967;SDS011;9109;48.050;11.696;2022-07-25T07:14:16;14.70;;;8.57;;
17967;SDS011;9109;48.050;11.696;2022-07-25T07:17:18;13.85;;;9.38;;
17967;SDS011;9109;48.050;11.696;2022-07-25T07:20:21;16.50;;;9.75;;
17967;SDS011;9109;48.050;11.696;2022-07-25T07:23:23;13.15;;;9.52;;
17967;SDS011;9109;48.050;11.696;2022-07-25T07:26:26;11.10;;;9.20;;
17967;SDS011;9109;48.050;11.696;2022-07-25T07:29:27;13.82;;;9.02;;
17967;SDS011;9109;48.050;11.696;2022-07-25T07:32:29;12.70;;;8.95;;
17967;SDS011;9109;48.050;11.696;2022-07-25T07:35:33;15.35;;;9.07;;
17967;SDS011;9109;48.050;11.696;2022-07-25T07:38:35;12.38;;;9.32;;
17967;SDS011;9109;48.050;11.696;2022-07-25T07:41:36;14.20;;;9.68;;
17967;SDS011;9109;48.050;11.696;2022-07-25T07:44:38;20.90;;;9.68;;
17967;SDS011;9109;48.050;11.696;2022-07-25T07:47:40;18.42;;;9.75;;
17967;SDS011;9109;48.050;11.696;2022-07-25T07:50:44;13.40;;;9.20;;
17967;SDS011;9109;48.050;11.696;2022-07-25T07:53:46;13.88;;;9.48;;
17967;SDS011;9109;48.050;11.696;2022-07-25T07:57:05;12.40;;;8.82;;
17967;SDS011;9109;48.050;11.696;2022-07-25T08:00:07;13.35;;;9.13;;
17967;SDS011;9109;48.050;11.696;2022-07-25T08:03:10;12.88;;;9.02;;
17967;SDS011;9109;48.050;11.696;2022-07-25T08:06:13;18.60;;;9.10;;
17967;SDS011;9109;48.050;11.696;2022-07-25T08:09:15;15.73;;;8.80;;
17967;SDS011;9109;48.050;11.696;2022-07-25T08:12:17;14.63;;;9.10;;
17967;SDS011;9109;48.050;11.696;2022-07-25T08:15:19;12.57;;;8.93;;
17967;SDS011;9109;48.050;11.696;2022-07-25T08:18:23;12.00;;;8.60;;
17967;SDS011;9109;48.050;11.696;2022-07-25T08:21:27;13.25;;;9.15;;
17967;SDS011;9109;48.050;11.696;2022-07-25T08:24:29;13.80;;;8.77;;
17967;SDS011;9109;48.050;11.696;2022-07-25T08:27:31;17.20;;;9.63;;
17967;SDS011;9109;48.050;11.696;2022-07-25T08:30:33;14.20;;;9.85;;
17967;SDS011;9109;48.050;11.696;2022-07-25T08:33:35;13.77;;;9.52;;
17967;SDS011;9109;48.050;11.696;2022-07-25T08:36:39;19.90;;;9.75;;
17967;SDS011;9109;48.050;11.696;2022-07-25T08:39:41;14.02;;;8.52;;
17967;SDS011;9109;48.050;11.696;2022-07-25T08:42:44;12.88;;;8.77;;
17967;SDS011;9109;48.050;11.696;2022-07-25T08:45:46;15.45;;;9.07;;
17967;SDS011;9109;48.050;11.696;2022-07-25T08:48:49;13.63;;;9.20;;
17967;SDS011;9109;48.050;11.696;2022-07-25T08:51:53;12.52;;;9.23;;
17967;SDS011;9109;48.050;11.696;2022-07-25T08:54:55;13.88;;;9.45;;
17967;SDS011;9109;48.050;11.696;2022-07-25T08:57:58;11.10;;;9.35;;
17967;SDS011;9109;48.050;11.696;2022-07-25T09:01:01;14.35;;;9.68;;
17967;SDS011;9109;48.050;11.696;2022-07-25T09:04:03;13.73;;;8.85;;
17967;SDS011;9109;48.050;11.696;2022-07-25T09:07:06;15.02;;;9.52;;
17967;SDS011;9109;48.050;11.696;2022-07-25T09:10:12;13.23;;;9.30;;
17967;SDS011;9109;48.050;11.696;2022-07-25T09:13:16;11.63;;;9.30;;
17967;SDS011;9109;48.050;11.696;2022-07-25T09:16:27;12.55;;;9.35;;
17967;SDS011;9109;48.050;11.696;2022-07-25T09:19:29;16.27;;;9.57;;
17967;SDS011;9109;48.050;11.696;2022-07-25T09:22:42;11.50;;;8.40;;
17967;SDS011;9109;48.050;11.696;2022-07-25T09:25:45;14.32;;;9.23;;
17967;SDS011;9109;48.050;11.696;2022-07-25T09:28:47;14.07;;;9.13;;
17967;SDS011;9109;48.050;11.696;2022-07-25T09:31:51;12.65;;;9.55;;
17967;SDS011;9109;48.050;11.696;2022-07-25T09:34:55;17.40;;;8.55;;
17967;SDS011;9109;48.050;11.696;2022-07-25T09:38:06;13.30;;;9.27;;
17967;SDS011;9109;48.050;11.696;2022-07-25T09:41:12;14.52;;;7.88;;
17967;SDS011;9109;48.050;11.696;2022-07-25T09:44:16;11.48;;;8.65;;
17967;SDS011;9109;48.050;11.696;2022-07-25T09:47:19;11.25;;;7.28;;
17967;SDS011;9109;48.050;11.696;2022-07-25T09:50:22;12.10;;;7.80;;
17967;SDS011;9109;48.050;11.696;2022-07-25T09:53:27;10.07;;;6.90;;
17967;SDS011;9109;48.050;11.696;2022-07-25T09:56:29;14.32;;;7.38;;
17967;SDS011;9109;48.050;11.696;2022-07-25T09:59:34;11.70;;;7.10;;
17967;SDS011;9109;48.050;11.696;2022-07-25T10:02:39;13.88;;;6.55;;
17967;SDS011;9109;48.050;11.696;2022-07-25T10:05:49;10.30;;;6.00;;
17967;SDS011;9109;48.050;11.696;2022-07-25T10:09:03;11.10;;;7.18;;
17967;SDS011;9109;48.050;11.696;2022-07-25T10:12:12;9.60;;;6.47;;
17967;SDS011;9109;48.050;11.696;2022-07-25T10:15:14;11.82;;;6.13;;
17967;SDS011;9109;48.050;11.696;2022-07-25T10:18:17;10.30;;;6.88;;
17967;SDS011;9109;48.050;11.696;2022-07-25T10:21:21;15.20;;;6.88;;
17967;SDS011;9109;48.050;11.696;2022-07-25T10:24:31;7.90;;;6.22;;
17967;SDS011;9109;48.050;11.696;2022-07-25T10:27:39;10.73;;;7.53;;
17967;SDS011;9109;48.050;11.696;2022-07-25T10:30:43;9.82;;;7.03;;
17967;SDS011;9109;48.050;11.696;2022-07-25T10:33:46;10.23;;;6.72;;
17967;SDS011;9109;48.050;11.696;2022-07-25T10:36:51;10.85;;;6.93;;
17967;SDS011;9109;48.050;11.696;2022-07-25T10:39:56;11.00;;;7.03;;
17967;SDS011;9109;48.050;11.696;2022-07-25T10:43:05;13.13;;;6.93;;
17967;SDS011;9109;48.050;11.696;2022-07-25T10:46:12;9.38;;;6.18;;
17967;SDS011;9109;48.050;11.696;2022-07-25T10:49:16;10.25;;;7.75;;
17967;SDS011;9109;48.050;11.696;2022-07-25T10:52:19;9.27;;;6.82;;
17967;SDS011;9109;48.050;11.696;2022-07-25T10:55:23;19.17;;;7.45;;
17967;SDS011;9109;48.050;11.696;2022-07-25T10:58:24;11.00;;;7.88;;
17967;SDS011;9109;48.050;11.696;2022-07-25T11:01:27;8.77;;;6.78;;
17967;SDS011;9109;48.050;11.696;2022-07-25T11:04:32;10.68;;;7.25;;
17967;SDS011;9109;48.050;11.696;2022-07-25T11:07:34;8.27;;;6.55;;
17967;SDS011;9109;48.050;11.696;2022-07-25T11:10:37;7.40;;;6.05;;
17967;SDS011;9109;48.050;11.696;2022-07-25T11:13:40;10.77;;;6.30;;
17967;SDS011;9109;48.050;11.696;2022-07-25T11:16:46;13.10;;;6.15;;
17967;SDS011;9109;48.050;11.696;2022-07-25T11:19:53;15.32;;;6.15;;
17967;SDS011;9109;48.050;11.696;2022-07-25T11:22:57;6.82;;;5.78;;
17967;SDS011;9109;48.050;11.696;2022-07-25T11:26:06;8.82;;;5.57;;
17967;SDS011;9109;48.050;11.696;2022-07-25T11:29:16;6.80;;;5.18;;
17967;SDS011;9109;48.050;11.696;2022-07-25T11:32:19;6.88;;;5.05;;
17967;SDS011;9109;48.050;11.696;2022-07-25T11:35:21;10.63;;;5.47;;
17967;SDS011;9109;48.050;11.696;2022-07-25T11:38:25;6.25;;;4.57;;
17967;SDS011;9109;48.050;11.696;2022-07-25T11:41:29;11.45;;;4.97;;
17967;SDS011;9109;48.050;11.696;2022-07-25T11:44:32;6.38;;;4.90;;
17967;SDS011;9109;48.050;11.696;2022-07-25T11:47:34;9.13;;;4.47;;
17967;SDS011;9109;48.050;11.696;2022-07-25T11:50:37;8.85;;;4.40;;
17967;SDS011;9109;48.050;11.696;2022-07-25T11:53:41;6.75;;;4.38;;
17967;SDS011;9109;48.050;11.696;2022-07-25T11:56:46;5.90;;;4.40;;
17967;SDS011;9109;48.050;11.696;2022-07-25T11:59:47;9.70;;;5.05;;
17967;SDS011;9109;48.050;11.696;2022-07-25T12:02:49;6.10;;;4.53;;
17967;SDS011;9109;48.050;11.696;2022-07-25T12:05:51;5.78;;;4.47;;
17967;SDS011;9109;48.050;11.696;2022-07-25T12:08:55;7.32;;;3.90;;
17967;SDS011;9109;48.050;11.696;2022-07-25T12:12:02;6.50;;;4.90;;
17967;SDS011;9109;48.050;11.696;2022-07-25T12:15:05;6.53;;;4.50;;
17967;SDS011;9109;48.050;11.696;2022-07-25T12:18:07;11.38;;;4.65;;
17967;SDS011;9109;48.050;11.696;2022-07-25T12:21:11;8.00;;;4.68;;
17967;SDS011;9109;48.050;11.696;2022-07-25T12:24:13;5.15;;;4.45;;
17967;SDS011;9109;48.050;11.696;2022-07-25T12:27:16;7.25;;;4.50;;
17967;SDS011;9109;48.050;11.696;2022-07-25T12:30:18;5.97;;;4.80;;
17967;SDS011;9109;48.050;11.696;2022-07-25T12:33:20;7.72;;;4.78;;
17967;SDS011;9109;48.050;11.696;2022-07-25T12:36:22;8.95;;;4.78;;
17967;SDS011;9109;48.050;11.696;2022-07-25T12:39:24;8.57;;;5.03;;
17967;SDS011;9109;48.050;11.696;2022-07-25T12:42:27;8.20;;;5.30;;
17967;SDS011;9109;48.050;11.696;2022-07-25T12:45:29;21.17;;;6.03;;
17967;SDS011;9109;48.050;11.696;2022-07-25T12:48:31;6.93;;;5.22;;
17967;SDS011;9109;48.050;11.696;2022-07-25T12:51:33;10.45;;;5.00;;
17967;SDS011;9109;48.050;11.696;2022-07-25T12:54:36;12.82;;;5.88;;
17967;SDS011;9109;48.050;11.696;2022-07-25T12:57:39;11.38;;;5.15;;
17967;SDS011;9109;48.050;11.696;2022-07-25T13:00:41;6.10;;;5.20;;
17967;SDS011;9109;48.050;11.696;2022-07-25T13:03:46;6.25;;;5.03;;
17967;SDS011;9109;48.050;11.696;2022-07-25T13:06:48;5.30;;;4.80;;
17967;SDS011;9109;48.050;11.696;2022-07-25T13:09:50;7.70;;;5.45;;
17967;SDS011;9109;48.050;11.696;2022-07-25T13:12:53;9.65;;;4.93;;
17967;SDS011;9109;48.050;11.696;2022-07-25T13:15:55;8.10;;;4.95;;
17967;SDS011;9109;48.050;11.696;2022-07-25T13:18:58;10.55;;;4.72;;
17967;SDS011;9109;48.050;11.696;2022-07-25T13:22:00;6.15;;;4.80;;
17967;SDS011;9109;48.050;11.696;2022-07-25T13:25:06;7.07;;;5.18;;
17967;SDS011;9109;48.050;11.696;2022-07-25T13:28:10;6.95;;;4.95;;
17967;SDS011;9109;48.050;11.696;2022-07-25T13:31:12;6.57;;;5.00;;
17967;SDS011;9109;48.050;11.696;2022-07-25T13:34:13;7.95;;;4.97;;
17967;SDS011;9109;48.050;11.696;2022-07-25T13:37:16;10.57;;;5.57;;
17967;SDS011;9109;48.050;11.696;2022-07-25T13:40:18;6.28;;;5.00;;
17967;SDS011;9109;48.050;11.696;2022-07-25T13:43:21;6.47;;;5.15;;
17967;SDS011;9109;48.050;11.696;2022-07-25T13:46:23;10.85;;;5.40;;
17967;SDS011;9109;48.050;11.696;2022-07-25T13:49:25;7.55;;;4.90;;
17967;SDS011;9109;48.050;11.696;2022-07-25T13:52:27;8.88;;;5.00;;
17967;SDS011;9109;48.050;11.696;2022-07-25T13:55:29;9.88;;;5.20;;
17967;SDS011;9109;48.050;11.696;2022-07-25T13:58:33;8.20;;;5.55;;
17967;SDS011;9109;48.050;11.696;2022-07-25T14:01:35;7.75;;;5.15;;
17967;SDS011;9109;48.050;11.696;2022-07-25T14:04:37;11.20;;;4.60;;
17967;SDS011;9109;48.050;11.696;2022-07-25T14:07:40;6.10;;;4.65;;
17967;SDS011;9109;48.050;11.696;2022-07-25T14:10:42;5.93;;;4.85;;
17967;SDS011;9109;48.050;11.696;2022-07-25T14:13:45;5.00;;;4.28;;
17967;SDS011;9109;48.050;11.696;2022-07-25T14:16:47;17.50;;;4.57;;
17967;SDS011;9109;48.050;11.696;2022-07-25T14:19:49;7.47;;;4.85;;
17967;SDS011;9109;48.050;11.696;2022-07-25T14:22:52;7.47;;;4.65;;
17967;SDS011;9109;48.050;11.696;2022-07-25T14:25:54;7.97;;;4.95;;
17967;SDS011;9109;48.050;11.696;2022-07-25T14:28:58;7.45;;;5.43;;
17967;SDS011;9109;48.050;11.696;2022-07-25T14:32:00;5.60;;;4.90;;
17967;SDS011;9109;48.050;11.696;2022-07-25T14:35:02;5.82;;;4.72;;
17967;SDS011;9109;48.050;11.696;2022-07-25T14:38:06;6.43;;;4.78;;
17967;SDS011;9109;48.050;11.696;2022-07-25T14:41:08;5.97;;;4.82;;
17967;SDS011;9109;48.050;11.696;2022-07-25T14:44:11;8.00;;;5.05;;
17967;SDS011;9109;48.050;11.696;2022-07-25T14:47:13;6.47;;;4.72;;
17967;SDS011;9109;48.050;11.696;2022-07-25T14:50:15;8.85;;;4.40;;
17967;SDS011;9109;48.050;11.696;2022-07-25T14:53:17;9.52;;;4.63;;
17967;SDS011;9109;48.050;11.696;2022-07-25T14:56:19;6.97;;;4.97;;
17967;SDS011;9109;48.050;11.696;2022-07-25T14:59:23;7.80;;;4.60;;
17967;SDS011;9109;48.050;11.696;2022-07-25T15:02:25;8.55;;;5.15;;
17967;SDS011;9109;48.050;11.696;2022-07-25T15:05:27;11.57;;;4.50;;
17967;SDS011;9109;48.050;11.696;2022-07-25T15:08:29;6.28;;;4.75;;
17967;SDS011;9109;48.050;11.696;2022-07-25T15:11:31;13.43;;;5.15;;
17967;SDS011;9109;48.050;11.696;2022-07-25T15:14:34;6.57;;;4.70;;
17967;SDS011;9109;48.050;11.696;2022-07-25T15:17:36;6.82;;;4.53;;
17967;SDS011;9109;48.050;11.696;2022-07-25T15:20:38;5.93;;;4.55;;
17967;SDS011;9109;48.050;11.696;2022-07-25T15:23:40;13.20;;;6.20;;
17967;SDS011;9109;48.050;11.696;2022-07-25T15:26:42;4.93;;;4.38;;
17967;SDS011;9109;48.050;11.696;2022-07-25T15:29:46;6.22;;;3.92;;
17967;SDS011;9109;48.050;11.696;2022-07-25T15:32:48;7.68;;;4.20;;
17967;SDS011;9109;48.050;11.696;2022-07-25T15:35:49;7.82;;;4.68;;
17967;SDS011;9109;48.050;11.696;2022-07-25T15:38:51;12.25;;;4.28;;
17967;SDS011;9109;48.050;11.696;2022-07-25T15:41:54;5.18;;;4.25;;
17967;SDS011;9109;48.050;11.696;2022-07-25T15:44:57;6.05;;;4.43;;
17967;SDS011;9109;48.050;11.696;2022-07-25T15:47:59;5.30;;;4.47;;
17967;SDS011;9109;48.050;11.696;2022-07-25T15:51:02;9.20;;;4.05;;
17967;SDS011;9109;48.050;11.696;2022-07-25T15:54:05;4.43;;;3.78;;
17967;SDS011;9109;48.050;11.696;2022-07-25T15:57:07;5.90;;;3.92;;
17967;SDS011;9109;48.050;11.696;2022-07-25T16:00:11;5.75;;;4.05;;
17967;SDS011;9109;48.050;11.696;2022-07-25T16:03:13;7.95;;;4.47;;
17967;SDS011;9109;48.050;11.696;2022-07-25T16:06:15;4.72;;;3.97;;
17967;SDS011;9109;48.050;11.696;2022-07-25T16:09:19;4.97;;;3.83;;
17967;SDS011;9109;48.050;11.696;2022-07-25T16:12:21;8.73;;;4.35;;
17967;SDS011;9109;48.050;11.696;2022-07-25T16:15:26;5.05;;;4.15;;
17967;SDS011;9109;48.050;11.696;2022-07-25T16:18:28;4.18;;;3.78;;
17967;SDS011;9109;48.050;11.696;2022-07-25T16:21:30;5.22;;;4.57;;
17967;SDS011;9109;48.050;11.696;2022-07-25T16:24:32;4.80;;;3.72;;
17967;SDS011;9109;48.050;11.696;2022-07-25T16:27:36;5.13;;;3.92;;
17967;SDS011;9109;48.050;11.696;2022-07-25T16:30:39;6.18;;;3.58;;
17967;SDS011;9109;48.050;11.696;2022-07-25T16:33:41;6.90;;;3.97;;
17967;SDS011;9109;48.050;11.696;2022-07-25T16:36:43;4.45;;;3.58;;
17967;SDS011;9109;48.050;11.696;2022-07-25T16:39:45;5.22;;;3.92;;
17967;SDS011;9109;48.050;11.696;2022-07-25T16:42:47;4.75;;;3.75;;
17967;SDS011;9109;48.050;11.696;2022-07-25T16:45:50;6.45;;;3.38;;
17967;SDS011;9109;48.050;11.696;2022-07-25T16:48:52;9.82;;;3.80;;
17967;SDS011;9109;48.050;11.696;2022-07-25T16:51:55;4.80;;;3.50;;
17967;SDS011;9109;48.050;11.696;2022-07-25T16:54:56;5.32;;;3.70;;
17967;SDS011;9109;48.050;11.696;2022-07-25T16:57:59;4.45;;;3.30;;
17967;SDS011;9109;48.050;11.696;2022-07-25T17:01:02;7.00;;;3.70;;
17967;SDS011;9109;48.050;11.696;2022-07-25T17:04:04;6.13;;;3.85;;
17967;SDS011;9109;48.050;11.696;2022-07-25T17:07:07;12.85;;;3.90;;
17967;SDS011;9109;48.050;11.696;2022-07-25T17:10:09;5.88;;;4.18;;
17967;SDS011;9109;48.050;11.696;2022-07-25T17:13:11;5.55;;;4.45;;
17967;SDS011;9109;48.050;11.696;2022-07-25T17:16:14;4.93;;;3.97;;
17967;SDS011;9109;48.050;11.696;2022-07-25T17:19:16;9.25;;;4.10;;
17967;SDS011;9109;48.050;11.696;2022-07-25T17:22:18;8.27;;;4.30;;
17967;SDS011;9109;48.050;11.696;2022-07-25T17:25:20;7.05;;;4.65;;
17967;SDS011;9109;48.050;11.696;2022-07-25T17:28:22;5.93;;;5.03;;
17967;SDS011;9109;48.050;11.696;2022-07-25T17:31:25;17.38;;;5.10;;
17967;SDS011;9109;48.050;11.696;2022-07-25T17:34:27;6.63;;;4.70;;
17967;SDS011;9109;48.050;11.696;2022-07-25T17:37:29;12.70;;;5.30;;
17967;SDS011;9109;48.050;11.696;2022-07-25T17:40:31;19.75;;;5.10;;
17967;SDS011;9109;48.050;11.696;2022-07-25T17:43:33;6.43;;;5.35;;
17967;SDS011;9109;48.050;11.696;2022-07-25T17:46:37;6.60;;;4.93;;
17967;SDS011;9109;48.050;11.696;2022-07-25T17:49:38;9.68;;;5.32;;
17967;SDS011;9109;48.050;11.696;2022-07-25T17:52:41;7.57;;;5.85;;
17967;SDS011;9109;48.050;11.696;2022-07-25T17:55:43;7.40;;;5.70;;
17967;SDS011;9109;48.050;11.696;2022-07-25T17:58:45;8.95;;;5.78;;
17967;SDS011;9109;48.050;11.696;2022-07-25T18:01:48;8.70;;;5.65;;
17967;SDS011;9109;48.050;11.696;2022-07-25T18:04:50;8.98;;;5.78;;
17967;SDS011;9109;48.050;11.696;2022-07-25T18:07:52;9.10;;;5.97;;
17967;SDS011;9109;48.050;11.696;2022-07-25T18:10:54;7.68;;;5.75;;
17967;SDS011;9109;48.050;11.696;2022-07-25T18:13:56;8.15;;;5.70;;
17967;SDS011;9109;48.050;11.696;2022-07-25T18:17:00;8.35;;;5.88;;
17967;SDS011;9109;48.050;11.696;2022-07-25T18:20:02;7.65;;;5.13;;
17967;SDS011;9109;48.050;11.696;2022-07-25T18:23:04;8.07;;;6.13;;
17967;SDS011;9109;48.050;11.696;2022-07-25T18:26:07;9.50;;;5.78;;
17967;SDS011;9109;48.050;11.696;2022-07-25T18:29:09;9.50;;;5.55;;
17967;SDS011;9109;48.050;11.696;2022-07-25T18:32:12;13.10;;;5.72;;
17967;SDS011;9109;48.050;11.696;2022-07-25T18:35:14;9.43;;;6.22;;
17967;SDS011;9109;48.050;11.696;2022-07-25T18:38:16;7.32;;;5.70;;
17967;SDS011;9109;48.050;11.696;2022-07-25T18:41:18;7.80;;;6.13;;
17967;SDS011;9109;48.050;11.696;2022-07-25T18:44:20;15.73;;;6.35;;
17967;SDS011;9109;48.050;11.696;2022-07-25T18:47:24;12.82;;;6.32;;
17967;SDS011;9109;48.050;11.696;2022-07-25T18:50:26;10.52;;;5.65;;
17967;SDS011;9109;48.050;11.696;2022-07-25T18:53:28;9.50;;;6.20;;
17967;SDS011;9109;48.050;11.696;2022-07-25T18:56:29;10.50;;;5.68;;
17967;SDS011;9109;48.050;11.696;2022-07-25T18:59:31;9.32;;;6.70;;
17967;SDS011;9109;48.050;11.696;2022-07-25T19:02:35;12.73;;;5.47;;
17967;SDS011;9109;48.050;11.696;2022-07-25T19:05:37;9.20;;;5.53;;
17967;SDS011;9109;48.050;11.696;2022-07-25T19:08:39;11.48;;;5.78;;
17967;SDS011;9109;48.050;11.696;2022-07-25T19:11:41;8.52;;;5.82;;
17967;SDS011;9109;48.050;11.696;2022-07-25T19:14:43;13.65;;;6.20;;
17967;SDS011;9109;48.050;11.696;2022-07-25T19:17:46;8.88;;;6.10;;
17967;SDS011;9109;48.050;11.696;2022-07-25T19:20:48;8.27;;;5.57;;
17967;SDS011;9109;48.050;11.696;2022-07-25T19:23:50;11.75;;;6.22;;
17967;SDS011;9109;48.050;11.696;2022-07-25T19:26:52;11.40;;;5.82;;
17967;SDS011;9109;48.050;11.696;2022-07-25T19:29:56;9.40;;;5.60;;
17967;SDS011;9109;48.050;11.696;2022-07-25T19:36:41;17.80;;;6.70;;
17967;SDS011;9109;48.050;11.696;2022-07-25T19:39:47;12.63;;;6.15;;
17967;SDS011;9109;48.050;11.696;2022-07-25T19:42:54;16.33;;;6.75;;
17967;SDS011;9109;48.050;11.696;2022-07-25T19:49:40;13.77;;;6.50;;
17967;SDS011;9109;48.050;11.696;2022-07-25T19:52:43;18.77;;;6.78;;
17967;SDS011;9109;48.050;11.696;2022-07-25T19:55:45;14.38;;;6.78;;
17967;SDS011;9109;48.050;11.696;2022-07-25T19:58:47;11.52;;;6.70;;
17967;SDS011;9109;48.050;11.696;2022-07-25T20:01:49;11.95;;;6.18;;
17967;SDS011;9109;48.050;11.696;2022-07-25T20:04:52;15.90;;;6.50;;
17967;SDS011;9109;48.050;11.696;2022-07-25T20:07:57;10.02;;;6.20;;
17967;SDS011;9109;48.050;11.696;2022-07-25T20:10:59;13.10;;;6.10;;
17967;SDS011;9109;48.050;11.696;2022-07-25T20:14:01;12.45;;;7.15;;
17967;SDS011;9109;48.050;11.696;2022-07-25T20:17:03;11.52;;;6.00;;
17967;SDS011;9109;48.050;11.696;2022-07-25T20:20:09;14.45;;;6.72;;
17967;SDS011;9109;48.050;11.696;2022-07-25T20:23:11;12.45;;;6.25;;
17967;SDS011;9109;48.050;11.696;2022-07-25T20:26:16;13.45;;;6.72;;
17967;SDS011;9109;48.050;11.696;2022-07-25T20:29:18;14.18;;;6.35;;
17967;SDS011;9109;48.050;11.696;2022-07-25T20:32:20;13.15;;;6.10;;
17967;SDS011;9109;48.050;11.696;2022-07-25T20:35:23;16.05;;;6.38;;
17967;SDS011;9109;48.050;11.696;2022-07-25T20:38:41;18.38;;;6.25;;
17967;SDS011;9109;48.050;11.696;2022-07-25T20:41:50;19.23;;;6.57;;
17967;SDS011;9109;48.050;11.696;2022-07-25T20:44:52;19.92;;;7.07;;
17967;SDS011;9109;48.050;11.696;2022-07-25T20:47:58;14.63;;;7.07;;
17967;SDS011;9109;48.050;11.696;2022-07-25T20:51:10;16.27;;;7.28;;
17967;SDS011;9109;48.050;11.696;2022-07-25T20:54:13;17.35;;;7.68;;
17967;SDS011;9109;48.050;11.696;2022-07-25T20:57:17;14.77;;;7.00;;
17967;SDS011;9109;48.050;11.696;2022-07-25T21:00:18;17.80;;;7.32;;
17967;SDS011;9109;48.050;11.696;2022-07-25T21:03:21;14.25;;;7.22;;
17967;SDS011;9109;48.050;11.696;2022-07-25T21:10:10;17.08;;;7.65;;
17967;SDS011;9109;48.050;11.696;2022-07-25T21:13:13;14.60;;;7.93;;
17967;SDS011;9109;48.050;11.696;2022-07-25T21:16:15;11.50;;;7.32;;
17967;SDS011;9109;48.050;11.696;2022-07-25T21:19:20;12.75;;;7.22;;
17967;SDS011;9109;48.050;11.696;2022-07-25T21:22:30;21.20;;;7.18;;
17967;SDS011;9109;48.050;11.696;2022-07-25T21:25:37;18.40;;;7.05;;
17967;SDS011;9109;48.050;11.696;2022-07-25T21:28:39;15.30;;;6.78;;
17967;SDS011;9109;48.050;11.696;2022-07-25T21:31:42;11.00;;;6.82;;
17967;SDS011;9109;48.050;11.696;2022-07-25T21:34:44;12.70;;;6.40;;
17967;SDS011;9109;48.050;11.696;2022-07-25T21:37:50;14.63;;;6.95;;
17967;SDS011;9109;48.050;11.696;2022-07-25T21:40:52;13.02;;;6.88;;
17967;SDS011;9109;48.050;11.696;2022-07-25T21:43:55;11.05;;;6.82;;
17967;SDS011;9109;48.050;11.696;2022-07-25T21:46:58;13.82;;;6.95;;
17967;SDS011;9109;48.050;11.696;2022-07-25T21:50:00;8.70;;;5.63;;
17967;SDS011;9109;48.050;11.696;2022-07-25T21:53:20;12.13;;;5.45;;
17967;SDS011;9109;48.050;11.696;2022-07-25T21:56:22;10.07;;;5.32;;
17967;SDS011;9109;48.050;11.696;2022-07-25T21:59:25;14.55;;;6.18;;
17967;SDS011;9109;48.050;11.696;2022-07-25T22:02:26;19.77;;;6.03;;
17967;SDS011;9109;48.050;11.696;2022-07-25T22:05:28;15.35;;;6.50;;
17967;SDS011;9109;48.050;11.696;2022-07-25T22:08:32;15.15;;;5.78;;